Obera, Argentina
Current Conditions -  °F | °C
As of 2:00 PM on Wednesday 22 Oct 2014 (Local Time) from SGEN Reporting Station
Few Clouds Few Clouds  
Wind Chill: 88°   Ceiling: Unl
Heat Index: 88°   Visibility: 6mi
Dew Point: 59°   Wind: 9mph
Humidity: 38%   Direction: 110°ESE
Pressure: 29.97"   Gusts: NA
Location:  27.48°S, 55.13°W
Report Text: SGEN 221700Z 11008KT 9999 FEW033 31/15 Q1015
Loading
Personal Weather Stations






























Interactive Weather Map New forecast layout! Learn more

10-Day Weather Forecast

Advertisements
Track Severe Weather on mobile